sensor_id;sensor_type;location;lat;lon;timestamp;pressure;altitude;pressure_sealevel;temperature;humidity
6218;BME280;3142;48.206;11.550;2022-09-06T00:00:34;95939.06;;;21.43;65.29
6218;BME280;3142;48.206;11.550;2022-09-06T00:03:01;95950.81;;;21.57;64.89
6218;BME280;3142;48.206;11.550;2022-09-06T00:05:28;95943.63;;;21.53;64.77
6218;BME280;3142;48.206;11.550;2022-09-06T00:07:57;95943.09;;;21.61;64.71
6218;BME280;3142;48.206;11.550;2022-09-06T00:10:23;95941.47;;;21.50;64.85
6218;BME280;3142;48.206;11.550;2022-09-06T00:12:50;95947.03;;;21.43;64.64
6218;BME280;3142;48.206;11.550;2022-09-06T00:15:18;95933.69;;;21.28;65.42
6218;BME280;3142;48.206;11.550;2022-09-06T00:17:45;95937.63;;;21.20;65.82
6218;BME280;3142;48.206;11.550;2022-09-06T00:20:11;95941.69;;;21.28;65.56
6218;BME280;3142;48.206;11.550;2022-09-06T00:22:38;95943.28;;;21.29;65.36
6218;BME280;3142;48.206;11.550;2022-09-06T00:25:05;95943.53;;;21.33;65.31
6218;BME280;3142;48.206;11.550;2022-09-06T00:27:32;95938.78;;;21.45;64.79
6218;BME280;3142;48.206;11.550;2022-09-06T00:29:58;95949.44;;;21.40;64.50
6218;BME280;3142;48.206;11.550;2022-09-06T00:32:26;95939.53;;;21.25;65.57
6218;BME280;3142;48.206;11.550;2022-09-06T00:34:53;95949.31;;;21.14;65.79
6218;BME280;3142;48.206;11.550;2022-09-06T00:37:19;95943.44;;;21.12;66.07
6218;BME280;3142;48.206;11.550;2022-09-06T00:39:45;95945.28;;;21.07;66.05
6218;BME280;3142;48.206;11.550;2022-09-06T00:42:12;95943.09;;;20.93;66.54
6218;BME280;3142;48.206;11.550;2022-09-06T00:44:39;95949.13;;;20.79;66.85
6218;BME280;3142;48.206;11.550;2022-09-06T00:47:06;95946.94;;;20.65;67.20
6218;BME280;3142;48.206;11.550;2022-09-06T00:49:38;95947.63;;;20.51;68.04
6218;BME280;3142;48.206;11.550;2022-09-06T00:52:10;95954.69;;;20.35;68.56
6218;BME280;3142;48.206;11.550;2022-09-06T00:54:39;95943.44;;;20.28;68.96
6218;BME280;3142;48.206;11.550;2022-09-06T00:57:06;95945.81;;;20.24;69.15
6218;BME280;3142;48.206;11.550;2022-09-06T00:59:35;95954.06;;;20.23;68.92
6218;BME280;3142;48.206;11.550;2022-09-06T01:02:02;95947.91;;;20.17;69.40
6218;BME280;3142;48.206;11.550;2022-09-06T01:04:30;95956.19;;;20.26;69.03
6218;BME280;3142;48.206;11.550;2022-09-06T01:07:02;95957.00;;;20.26;68.88
6218;BME280;3142;48.206;11.550;2022-09-06T01:09:38;95955.38;;;20.20;69.92
6218;BME280;3142;48.206;11.550;2022-09-06T01:12:23;95956.63;;;20.12;69.65
6218;BME280;3142;48.206;11.550;2022-09-06T01:15:04;95958.72;;;20.10;70.30
6218;BME280;3142;48.206;11.550;2022-09-06T01:17:40;95966.97;;;20.09;70.47
6218;BME280;3142;48.206;11.550;2022-09-06T01:20:40;95964.53;;;20.02;70.64
6218;BME280;3142;48.206;11.550;2022-09-06T01:23:34;95956.34;;;20.14;70.41
6218;BME280;3142;48.206;11.550;2022-09-06T01:26:14;95959.47;;;20.38;69.24
6218;BME280;3142;48.206;11.550;2022-09-06T01:28:46;95959.41;;;20.60;68.84
6218;BME280;3142;48.206;11.550;2022-09-06T01:31:20;95950.91;;;20.63;68.55
6218;BME280;3142;48.206;11.550;2022-09-06T01:33:55;95959.22;;;20.72;68.25
6218;BME280;3142;48.206;11.550;2022-09-06T01:36:26;95951.19;;;20.66;68.01
6218;BME280;3142;48.206;11.550;2022-09-06T01:38:54;95955.69;;;20.66;68.09
6218;BME280;3142;48.206;11.550;2022-09-06T01:41:20;95958.88;;;20.58;68.40
6218;BME280;3142;48.206;11.550;2022-09-06T01:43:49;95951.44;;;20.60;68.36
6218;BME280;3142;48.206;11.550;2022-09-06T01:46:23;95953.81;;;20.61;68.17
6218;BME280;3142;48.206;11.550;2022-09-06T01:49:13;95958.56;;;20.54;68.68
6218;BME280;3142;48.206;11.550;2022-09-06T01:51:55;95964.66;;;20.50;68.43
6218;BME280;3142;48.206;11.550;2022-09-06T01:54:37;95969.44;;;20.21;69.60
6218;BME280;3142;48.206;11.550;2022-09-06T01:57:21;95966.75;;;20.16;70.04
6218;BME280;3142;48.206;11.550;2022-09-06T02:00:01;95956.06;;;20.10;70.15
6218;BME280;3142;48.206;11.550;2022-09-06T02:02:38;95966.38;;;20.02;70.83
6218;BME280;3142;48.206;11.550;2022-09-06T02:05:11;95962.66;;;20.03;70.42
6218;BME280;3142;48.206;11.550;2022-09-06T02:07:39;95966.75;;;20.16;70.50
6218;BME280;3142;48.206;11.550;2022-09-06T02:10:13;95959.97;;;20.30;69.54
6218;BME280;3142;48.206;11.550;2022-09-06T02:12:44;95954.31;;;20.21;70.05
6218;BME280;3142;48.206;11.550;2022-09-06T02:15:17;95964.72;;;20.28;69.80
6218;BME280;3142;48.206;11.550;2022-09-06T02:17:49;95963.88;;;20.22;69.74
6218;BME280;3142;48.206;11.550;2022-09-06T02:20:22;95962.84;;;20.28;69.52
6218;BME280;3142;48.206;11.550;2022-09-06T02:22:52;95961.31;;;20.32;69.37
6218;BME280;3142;48.206;11.550;2022-09-06T02:25:23;95947.97;;;20.27;69.10
6218;BME280;3142;48.206;11.550;2022-09-06T02:27:51;95949.00;;;20.21;69.65
6218;BME280;3142;48.206;11.550;2022-09-06T02:30:19;95955.34;;;20.15;69.78
6218;BME280;3142;48.206;11.550;2022-09-06T02:32:48;95942.25;;;20.08;69.29
6218;BME280;3142;48.206;11.550;2022-09-06T02:35:16;95950.56;;;20.17;69.76
6218;BME280;3142;48.206;11.550;2022-09-06T02:37:43;95948.19;;;20.21;69.31
6218;BME280;3142;48.206;11.550;2022-09-06T02:40:10;95951.41;;;20.28;68.67
6218;BME280;3142;48.206;11.550;2022-09-06T02:42:38;95951.19;;;20.29;68.47
6218;BME280;3142;48.206;11.550;2022-09-06T02:45:06;95946.34;;;20.26;68.76
6218;BME280;3142;48.206;11.550;2022-09-06T02:47:34;95955.91;;;20.22;68.98
6218;BME280;3142;48.206;11.550;2022-09-06T02:50:01;95952.47;;;20.27;68.49
6218;BME280;3142;48.206;11.550;2022-09-06T02:52:27;95961.25;;;20.27;68.38
6218;BME280;3142;48.206;11.550;2022-09-06T02:54:54;95963.16;;;20.32;68.22
6218;BME280;3142;48.206;11.550;2022-09-06T02:57:20;95958.38;;;20.34;67.95
6218;BME280;3142;48.206;11.550;2022-09-06T02:59:47;95967.16;;;20.34;67.80
6218;BME280;3142;48.206;11.550;2022-09-06T03:02:14;95963.16;;;20.32;67.65
6218;BME280;3142;48.206;11.550;2022-09-06T03:04:42;95962.38;;;20.36;67.82
6218;BME280;3142;48.206;11.550;2022-09-06T03:07:08;95956.41;;;20.19;67.73
6218;BME280;3142;48.206;11.550;2022-09-06T03:09:35;95952.97;;;20.19;67.94
6218;BME280;3142;48.206;11.550;2022-09-06T03:12:02;95963.84;;;20.17;68.17
6218;BME280;3142;48.206;11.550;2022-09-06T03:14:28;95957.16;;;20.15;68.26
6218;BME280;3142;48.206;11.550;2022-09-06T03:16:55;95959.78;;;20.09;68.09
6218;BME280;3142;48.206;11.550;2022-09-06T03:19:21;95956.59;;;20.07;68.37
6218;BME280;3142;48.206;11.550;2022-09-06T03:21:49;95960.81;;;20.03;68.24
6218;BME280;3142;48.206;11.550;2022-09-06T03:24:15;95963.50;;;20.08;68.21
6218;BME280;3142;48.206;11.550;2022-09-06T03:26:42;95963.50;;;20.08;68.52
6218;BME280;3142;48.206;11.550;2022-09-06T03:29:08;95955.56;;;20.13;67.95
6218;BME280;3142;48.206;11.550;2022-09-06T03:31:35;95946.06;;;20.18;67.47
6218;BME280;3142;48.206;11.550;2022-09-06T03:34:01;95945.50;;;20.16;67.37
6218;BME280;3142;48.206;11.550;2022-09-06T03:36:27;95951.31;;;20.12;67.04
6218;BME280;3142;48.206;11.550;2022-09-06T03:38:55;95945.69;;;20.09;67.62
6218;BME280;3142;48.206;11.550;2022-09-06T03:41:22;95944.09;;;20.08;67.28
6218;BME280;3142;48.206;11.550;2022-09-06T03:43:48;95942.47;;;20.02;67.79
6218;BME280;3142;48.206;11.550;2022-09-06T03:46:15;95939.25;;;20.00;67.55
6218;BME280;3142;48.206;11.550;2022-09-06T03:48:41;95943.75;;;19.99;67.09
6218;BME280;3142;48.206;11.550;2022-09-06T03:51:07;95940.56;;;19.97;67.56
6218;BME280;3142;48.206;11.550;2022-09-06T03:53:34;95938.44;;;19.99;67.20
6218;BME280;3142;48.206;11.550;2022-09-06T03:56:02;95945.88;;;19.97;67.26
6218;BME280;3142;48.206;11.550;2022-09-06T03:58:30;95945.13;;;20.02;67.38
6218;BME280;3142;48.206;11.550;2022-09-06T04:01:02;95942.94;;;19.99;67.44
6218;BME280;3142;48.206;11.550;2022-09-06T04:03:29;95936.81;;;19.93;67.08
6218;BME280;3142;48.206;11.550;2022-09-06T04:05:55;95936.69;;;19.78;68.08
6218;BME280;3142;48.206;11.550;2022-09-06T04:08:22;95928.34;;;19.69;68.15
6218;BME280;3142;48.206;11.550;2022-09-06T04:10:49;95936.88;;;19.71;68.28
6218;BME280;3142;48.206;11.550;2022-09-06T04:13:17;95938.25;;;19.74;67.75
6218;BME280;3142;48.206;11.550;2022-09-06T04:15:44;95947.75;;;19.70;68.02
6218;BME280;3142;48.206;11.550;2022-09-06T04:18:11;95957.91;;;19.78;67.71
6218;BME280;3142;48.206;11.550;2022-09-06T04:20:37;95963.22;;;19.78;67.66
6218;BME280;3142;48.206;11.550;2022-09-06T04:23:04;95951.75;;;19.72;67.63
6218;BME280;3142;48.206;11.550;2022-09-06T04:25:30;95948.75;;;19.64;67.57
6218;BME280;3142;48.206;11.550;2022-09-06T04:27:57;95943.63;;;19.57;68.29
6218;BME280;3142;48.206;11.550;2022-09-06T04:30:25;95948.31;;;19.50;67.94
6218;BME280;3142;48.206;11.550;2022-09-06T04:32:51;95953.25;;;19.41;68.96
6218;BME280;3142;48.206;11.550;2022-09-06T04:35:17;95946.97;;;19.47;68.44
6218;BME280;3142;48.206;11.550;2022-09-06T04:37:44;95952.81;;;19.49;68.30
6218;BME280;3142;48.206;11.550;2022-09-06T04:40:10;95947.25;;;19.51;68.66
6218;BME280;3142;48.206;11.550;2022-09-06T04:42:37;95947.63;;;19.60;67.65
6218;BME280;3142;48.206;11.550;2022-09-06T04:45:05;95946.75;;;19.54;68.37
6218;BME280;3142;48.206;11.550;2022-09-06T04:47:33;95938.31;;;19.57;68.41
6218;BME280;3142;48.206;11.550;2022-09-06T04:49:59;95941.28;;;19.61;68.47
6218;BME280;3142;48.206;11.550;2022-09-06T04:52:25;95946.81;;;19.59;68.04
6218;BME280;3142;48.206;11.550;2022-09-06T04:54:52;95957.25;;;19.66;68.11
6218;BME280;3142;48.206;11.550;2022-09-06T04:57:18;95967.09;;;19.65;67.88
6218;BME280;3142;48.206;11.550;2022-09-06T04:59:44;95967.53;;;19.57;68.13
6218;BME280;3142;48.206;11.550;2022-09-06T05:02:11;95965.41;;;19.59;67.90
6218;BME280;3142;48.206;11.550;2022-09-06T05:04:39;95964.88;;;19.57;68.06
6218;BME280;3142;48.206;11.550;2022-09-06T05:07:06;95963.09;;;19.63;67.84
6218;BME280;3142;48.206;11.550;2022-09-06T05:09:33;95976.09;;;19.64;67.66
6218;BME280;3142;48.206;11.550;2022-09-06T05:12:01;95972.94;;;19.67;67.80
6218;BME280;3142;48.206;11.550;2022-09-06T05:14:28;95979.47;;;19.60;68.71
6218;BME280;3142;48.206;11.550;2022-09-06T05:16:55;95984.50;;;19.56;68.43
6218;BME280;3142;48.206;11.550;2022-09-06T05:19:21;95982.47;;;19.63;68.49
6218;BME280;3142;48.206;11.550;2022-09-06T05:21:50;95980.88;;;19.62;68.80
6218;BME280;3142;48.206;11.550;2022-09-06T05:24:17;95978.69;;;19.59;68.51
6218;BME280;3142;48.206;11.550;2022-09-06T05:26:43;95985.63;;;19.60;69.33
6218;BME280;3142;48.206;11.550;2022-09-06T05:29:10;95990.44;;;19.63;68.71
6218;BME280;3142;48.206;11.550;2022-09-06T05:31:36;95992.38;;;19.73;68.59
6218;BME280;3142;48.206;11.550;2022-09-06T05:34:03;96003.00;;;19.73;68.27
6218;BME280;3142;48.206;11.550;2022-09-06T05:36:29;96006.78;;;19.77;68.50
6218;BME280;3142;48.206;11.550;2022-09-06T05:38:58;96010.72;;;19.74;68.43
6218;BME280;3142;48.206;11.550;2022-09-06T05:41:25;96011.75;;;19.73;69.41
6218;BME280;3142;48.206;11.550;2022-09-06T05:43:51;96013.59;;;19.73;69.45
6218;BME280;3142;48.206;11.550;2022-09-06T05:46:18;96021.81;;;19.71;69.48
6218;BME280;3142;48.206;11.550;2022-09-06T05:48:50;96026.97;;;19.78;69.36
6218;BME280;3142;48.206;11.550;2022-09-06T05:51:17;96020.88;;;19.82;69.13
6218;BME280;3142;48.206;11.550;2022-09-06T05:53:44;96020.09;;;19.82;69.94
6218;BME280;3142;48.206;11.550;2022-09-06T05:56:13;96024.09;;;19.85;69.32
6218;BME280;3142;48.206;11.550;2022-09-06T05:58:39;96024.66;;;19.87;70.01
6218;BME280;3142;48.206;11.550;2022-09-06T06:01:07;96043.91;;;19.99;69.27
6218;BME280;3142;48.206;11.550;2022-09-06T06:03:33;96055.06;;;20.01;69.32
6218;BME280;3142;48.206;11.550;2022-09-06T06:06:00;96057.94;;;19.94;69.62
6218;BME280;3142;48.206;11.550;2022-09-06T06:08:26;96063.00;;;19.96;69.38
6218;BME280;3142;48.206;11.550;2022-09-06T06:10:57;96061.66;;;19.93;69.36
6218;BME280;3142;48.206;11.550;2022-09-06T06:13:25;96065.59;;;19.91;70.28
6218;BME280;3142;48.206;11.550;2022-09-06T06:15:52;96054.47;;;19.94;70.13
6218;BME280;3142;48.206;11.550;2022-09-06T06:18:18;96060.28;;;19.91;70.28
6218;BME280;3142;48.206;11.550;2022-09-06T06:20:45;96060.34;;;19.96;70.13
6218;BME280;3142;48.206;11.550;2022-09-06T06:23:13;96063.91;;;20.06;70.02
6218;BME280;3142;48.206;11.550;2022-09-06T06:25:39;96065.31;;;20.14;69.67
6218;BME280;3142;48.206;11.550;2022-09-06T06:28:06;96060.69;;;20.31;69.49
6218;BME280;3142;48.206;11.550;2022-09-06T06:30:33;96060.22;;;20.39;69.39
6218;BME280;3142;48.206;11.550;2022-09-06T06:33:00;96064.59;;;20.46;68.90
6218;BME280;3142;48.206;11.550;2022-09-06T06:35:26;96055.03;;;20.50;68.60
6218;BME280;3142;48.206;11.550;2022-09-06T06:37:53;96059.03;;;20.52;69.10
6218;BME280;3142;48.206;11.550;2022-09-06T06:40:20;96062.81;;;20.56;68.78
6218;BME280;3142;48.206;11.550;2022-09-06T06:42:46;96070.03;;;20.61;68.34
6218;BME280;3142;48.206;11.550;2022-09-06T06:45:13;96075.91;;;20.68;68.09
6218;BME280;3142;48.206;11.550;2022-09-06T06:47:41;96074.69;;;20.81;67.79
6218;BME280;3142;48.206;11.550;2022-09-06T06:50:08;96075.50;;;21.23;66.64
6218;BME280;3142;48.206;11.550;2022-09-06T06:52:34;96075.66;;;21.44;66.20
6218;BME280;3142;48.206;11.550;2022-09-06T06:55:01;96068.41;;;21.97;64.77
6218;BME280;3142;48.206;11.550;2022-09-06T06:57:27;96071.41;;;22.31;63.21
6218;BME280;3142;48.206;11.550;2022-09-06T06:59:53;96069.34;;;22.94;60.74
6218;BME280;3142;48.206;11.550;2022-09-06T07:02:20;96068.72;;;23.38;59.29
6218;BME280;3142;48.206;11.550;2022-09-06T07:04:48;96064.97;;;23.59;57.80
6218;BME280;3142;48.206;11.550;2022-09-06T07:07:14;96072.78;;;24.00;57.13
6218;BME280;3142;48.206;11.550;2022-09-06T07:09:40;96070.94;;;23.95;56.82
6218;BME280;3142;48.206;11.550;2022-09-06T07:12:07;96073.50;;;24.10;55.50
6218;BME280;3142;48.206;11.550;2022-09-06T07:14:33;96084.44;;;23.64;56.94
6218;BME280;3142;48.206;11.550;2022-09-06T07:17:00;96092.25;;;23.25;57.98
6218;BME280;3142;48.206;11.550;2022-09-06T07:19:26;96087.69;;;23.26;58.16
6218;BME280;3142;48.206;11.550;2022-09-06T07:21:54;96092.00;;;23.01;58.29
6218;BME280;3142;48.206;11.550;2022-09-06T07:24:21;96082.66;;;22.68;59.15
6218;BME280;3142;48.206;11.550;2022-09-06T07:26:48;96083.72;;;22.42;59.59
6218;BME280;3142;48.206;11.550;2022-09-06T07:29:14;96094.84;;;22.18;60.23
6218;BME280;3142;48.206;11.550;2022-09-06T07:31:40;96090.31;;;22.09;60.70
6218;BME280;3142;48.206;11.550;2022-09-06T07:34:07;96082.00;;;21.95;60.83
6218;BME280;3142;48.206;11.550;2022-09-06T07:36:33;96087.53;;;21.83;61.08
6218;BME280;3142;48.206;11.550;2022-09-06T07:39:01;96080.56;;;21.77;61.37
6218;BME280;3142;48.206;11.550;2022-09-06T07:41:28;96074.50;;;21.82;61.31
6218;BME280;3142;48.206;11.550;2022-09-06T07:43:54;96062.97;;;21.66;61.92
6218;BME280;3142;48.206;11.550;2022-09-06T07:46:21;96067.97;;;21.52;62.60
6218;BME280;3142;48.206;11.550;2022-09-06T07:48:47;96069.81;;;21.47;63.36
6218;BME280;3142;48.206;11.550;2022-09-06T07:51:16;96078.06;;;21.45;63.14
6218;BME280;3142;48.206;11.550;2022-09-06T07:53:46;96073.25;;;21.42;64.19
6218;BME280;3142;48.206;11.550;2022-09-06T07:56:16;96082.00;;;21.38;64.25
6218;BME280;3142;48.206;11.550;2022-09-06T07:58:43;96071.91;;;21.40;65.05
6218;BME280;3142;48.206;11.550;2022-09-06T08:01:14;96070.53;;;21.37;65.07
6218;BME280;3142;48.206;11.550;2022-09-06T08:03:40;96069.75;;;21.37;65.20
6218;BME280;3142;48.206;11.550;2022-09-06T08:06:07;96056.66;;;21.25;66.23
6218;BME280;3142;48.206;11.550;2022-09-06T08:08:33;96048.31;;;21.16;66.87
6218;BME280;3142;48.206;11.550;2022-09-06T08:11:00;96039.00;;;21.14;67.26
6218;BME280;3142;48.206;11.550;2022-09-06T08:13:28;96032.88;;;21.13;67.77
6218;BME280;3142;48.206;11.550;2022-09-06T08:15:57;96046.00;;;21.25;68.06
6218;BME280;3142;48.206;11.550;2022-09-06T08:18:23;96049.88;;;21.54;67.42
6218;BME280;3142;48.206;11.550;2022-09-06T08:20:50;96048.38;;;21.89;66.54
6218;BME280;3142;48.206;11.550;2022-09-06T08:23:16;96049.59;;;22.80;64.44
6218;BME280;3142;48.206;11.550;2022-09-06T08:25:42;96046.53;;;24.07;60.78
6218;BME280;3142;48.206;11.550;2022-09-06T08:28:09;96042.16;;;24.26;58.98
6218;BME280;3142;48.206;11.550;2022-09-06T08:30:37;96047.16;;;23.93;59.44
6218;BME280;3142;48.206;11.550;2022-09-06T08:33:03;96037.13;;;23.65;60.50
6218;BME280;3142;48.206;11.550;2022-09-06T08:35:29;96033.22;;;23.32;60.55
6218;BME280;3142;48.206;11.550;2022-09-06T08:37:56;96032.19;;;23.13;61.05
6218;BME280;3142;48.206;11.550;2022-09-06T08:40:23;96031.13;;;23.14;61.26
6218;BME280;3142;48.206;11.550;2022-09-06T08:42:50;96034.59;;;23.14;61.60
6218;BME280;3142;48.206;11.550;2022-09-06T08:45:17;96032.72;;;23.15;61.57
6218;BME280;3142;48.206;11.550;2022-09-06T08:47:47;96025.81;;;23.09;61.38
6218;BME280;3142;48.206;11.550;2022-09-06T08:50:15;96025.03;;;23.03;60.47
6218;BME280;3142;48.206;11.550;2022-09-06T08:52:49;96029.28;;;22.99;61.10
6218;BME280;3142;48.206;11.550;2022-09-06T08:55:31;96035.47;;;22.89;60.07
6218;BME280;3142;48.206;11.550;2022-09-06T08:58:08;96031.72;;;22.90;60.91
6218;BME280;3142;48.206;11.550;2022-09-06T09:00:39;96025.56;;;22.85;60.52
6218;BME280;3142;48.206;11.550;2022-09-06T09:03:16;96016.50;;;22.91;60.12
6218;BME280;3142;48.206;11.550;2022-09-06T09:05:47;96008.47;;;22.96;59.72
6218;BME280;3142;48.206;11.550;2022-09-06T09:08:22;96009.25;;;23.07;58.55
6218;BME280;3142;48.206;11.550;2022-09-06T09:10:55;96013.78;;;23.11;58.41
6218;BME280;3142;48.206;11.550;2022-09-06T09:13:27;96005.19;;;23.24;57.37
6218;BME280;3142;48.206;11.550;2022-09-06T09:15:55;95997.56;;;23.67;56.28
6218;BME280;3142;48.206;11.550;2022-09-06T09:18:27;95987.59;;;24.27;54.78
6218;BME280;3142;48.206;11.550;2022-09-06T09:20:56;95994.59;;;24.57;53.95
6218;BME280;3142;48.206;11.550;2022-09-06T09:23:23;95989.41;;;24.66;53.49
6218;BME280;3142;48.206;11.550;2022-09-06T09:25:51;95989.16;;;24.67;53.12
6218;BME280;3142;48.206;11.550;2022-09-06T09:28:21;95987.84;;;24.89;52.43
6218;BME280;3142;48.206;11.550;2022-09-06T09:30:50;95978.47;;;26.38;49.05
6218;BME280;3142;48.206;11.550;2022-09-06T09:33:27;95969.91;;;27.42;47.25
6218;BME280;3142;48.206;11.550;2022-09-06T09:35:55;95964.91;;;27.99;45.88
6218;BME280;3142;48.206;11.550;2022-09-06T09:38:25;95971.63;;;28.78;44.22
6218;BME280;3142;48.206;11.550;2022-09-06T09:40:54;95963.38;;;29.45;42.42
6218;BME280;3142;48.206;11.550;2022-09-06T09:43:22;95969.31;;;29.73;41.12
6218;BME280;3142;48.206;11.550;2022-09-06T09:46:09;95967.75;;;29.63;40.39
6218;BME280;3142;48.206;11.550;2022-09-06T09:48:39;95971.25;;;29.33;40.36
6218;BME280;3142;48.206;11.550;2022-09-06T09:51:17;95964.38;;;29.49;40.10
6218;BME280;3142;48.206;11.550;2022-09-06T09:53:49;95960.94;;;30.00;39.76
6218;BME280;3142;48.206;11.550;2022-09-06T09:56:16;95962.88;;;30.34;39.30
6218;BME280;3142;48.206;11.550;2022-09-06T09:58:44;95959.34;;;30.51;37.42
6218;BME280;3142;48.206;11.550;2022-09-06T10:01:14;95952.19;;;30.64;37.38
6218;BME280;3142;48.206;11.550;2022-09-06T10:03:43;95954.56;;;30.57;37.75
6218;BME280;3142;48.206;11.550;2022-09-06T10:06:12;95947.16;;;31.01;37.45
6218;BME280;3142;48.206;11.550;2022-09-06T10:08:41;95956.09;;;31.31;36.45
6218;BME280;3142;48.206;11.550;2022-09-06T10:11:12;95950.88;;;31.55;35.44
6218;BME280;3142;48.206;11.550;2022-09-06T10:13:47;95948.38;;;31.71;35.52
6218;BME280;3142;48.206;11.550;2022-09-06T10:16:13;95954.84;;;32.08;35.68
6218;BME280;3142;48.206;11.550;2022-09-06T10:18:41;95954.28;;;32.15;33.99
6218;BME280;3142;48.206;11.550;2022-09-06T10:21:10;95940.97;;;32.09;34.55
6218;BME280;3142;48.206;11.550;2022-09-06T10:23:47;95950.34;;;31.62;35.44
6218;BME280;3142;48.206;11.550;2022-09-06T10:26:26;95951.53;;;31.22;35.97
6218;BME280;3142;48.206;11.550;2022-09-06T10:29:02;95939.50;;;31.41;36.27
6218;BME280;3142;48.206;11.550;2022-09-06T10:31:41;95939.81;;;31.69;36.22
6218;BME280;3142;48.206;11.550;2022-09-06T10:34:42;95940.63;;;32.32;34.76
6218;BME280;3142;48.206;11.550;2022-09-06T10:37:19;95947.91;;;32.52;34.32
6218;BME280;3142;48.206;11.550;2022-09-06T10:39:54;95941.41;;;32.65;33.34
6218;BME280;3142;48.206;11.550;2022-09-06T10:42:28;95937.94;;;32.89;34.25
6218;BME280;3142;48.206;11.550;2022-09-06T10:45:25;95942.25;;;33.03;33.23
6218;BME280;3142;48.206;11.550;2022-09-06T10:47:58;95947.59;;;33.23;33.44
6218;BME280;3142;48.206;11.550;2022-09-06T10:50:33;95939.00;;;33.09;33.67
6218;BME280;3142;48.206;11.550;2022-09-06T10:53:07;95932.34;;;33.19;34.21
6218;BME280;3142;48.206;11.550;2022-09-06T10:55:37;95940.25;;;33.24;33.15
6218;BME280;3142;48.206;11.550;2022-09-06T10:58:05;95933.69;;;33.25;33.48
6218;BME280;3142;48.206;11.550;2022-09-06T11:00:35;95930.91;;;33.46;32.96
6218;BME280;3142;48.206;11.550;2022-09-06T11:03:09;95933.81;;;33.53;33.31
6218;BME280;3142;48.206;11.550;2022-09-06T11:05:43;95926.38;;;33.38;33.47
6218;BME280;3142;48.206;11.550;2022-09-06T11:08:15;95920.56;;;33.27;32.82
6218;BME280;3142;48.206;11.550;2022-09-06T11:10:46;95925.09;;;33.60;33.29
6218;BME280;3142;48.206;11.550;2022-09-06T11:13:16;95921.44;;;33.80;32.70
6218;BME280;3142;48.206;11.550;2022-09-06T11:15:47;95926.59;;;33.97;32.42
6218;BME280;3142;48.206;11.550;2022-09-06T11:18:17;95912.25;;;34.25;31.74
6218;BME280;3142;48.206;11.550;2022-09-06T11:20:55;95911.09;;;34.54;31.63
6218;BME280;3142;48.206;11.550;2022-09-06T11:23:39;95907.38;;;34.74;31.17
6218;BME280;3142;48.206;11.550;2022-09-06T11:26:25;95916.16;;;34.83;31.03
6218;BME280;3142;48.206;11.550;2022-09-06T11:28:55;95910.59;;;34.80;30.69
6218;BME280;3142;48.206;11.550;2022-09-06T11:31:26;95910.88;;;34.59;30.84
6218;BME280;3142;48.206;11.550;2022-09-06T11:34:08;95903.34;;;34.40;31.35
6218;BME280;3142;48.206;11.550;2022-09-06T11:36:37;95912.22;;;34.37;31.10
6218;BME280;3142;48.206;11.550;2022-09-06T11:39:06;95913.94;;;34.29;31.51
6218;BME280;3142;48.206;11.550;2022-09-06T11:41:36;95908.34;;;34.10;32.46
6218;BME280;3142;48.206;11.550;2022-09-06T11:44:04;95906.91;;;33.23;33.91
6218;BME280;3142;48.206;11.550;2022-09-06T11:47:02;95905.47;;;32.56;35.28
6218;BME280;3142;48.206;11.550;2022-09-06T11:49:36;95903.56;;;32.69;34.88
6218;BME280;3142;48.206;11.550;2022-09-06T11:55:30;95891.53;;;33.52;34.37
6218;BME280;3142;48.206;11.550;2022-09-06T11:57:59;95887.22;;;33.51;32.84
6218;BME280;3142;48.206;11.550;2022-09-06T12:00:27;95891.44;;;33.36;34.10
6218;BME280;3142;48.206;11.550;2022-09-06T12:02:55;95880.66;;;33.27;34.70
6218;BME280;3142;48.206;11.550;2022-09-06T12:05:27;95888.38;;;33.13;35.05
6218;BME280;3142;48.206;11.550;2022-09-06T12:08:22;95882.91;;;32.77;35.29
6218;BME280;3142;48.206;11.550;2022-09-06T12:10:56;95886.69;;;32.39;35.77
6218;BME280;3142;48.206;11.550;2022-09-06T12:13:42;95882.25;;;32.01;35.89
6218;BME280;3142;48.206;11.550;2022-09-06T12:16:13;95877.09;;;31.88;35.71
6218;BME280;3142;48.206;11.550;2022-09-06T12:19:02;95878.41;;;31.61;36.78
6218;BME280;3142;48.206;11.550;2022-09-06T12:21:41;95871.66;;;31.46;37.18
6218;BME280;3142;48.206;11.550;2022-09-06T12:27:13;95873.31;;;31.38;37.67
6218;BME280;3142;48.206;11.550;2022-09-06T12:29:53;95863.59;;;31.37;37.72
6218;BME280;3142;48.206;11.550;2022-09-06T12:32:24;95862.22;;;31.31;38.19
6218;BME280;3142;48.206;11.550;2022-09-06T12:34:54;95860.72;;;31.42;37.68
6218;BME280;3142;48.206;11.550;2022-09-06T12:37:33;95852.28;;;31.44;37.59
6218;BME280;3142;48.206;11.550;2022-09-06T12:40:03;95847.00;;;31.47;38.12
6218;BME280;3142;48.206;11.550;2022-09-06T12:42:31;95852.72;;;31.46;37.84
6218;BME280;3142;48.206;11.550;2022-09-06T12:45:02;95838.59;;;31.19;38.46
6218;BME280;3142;48.206;11.550;2022-09-06T12:47:31;95853.47;;;30.96;38.27
6218;BME280;3142;48.206;11.550;2022-09-06T12:50:10;95843.69;;;30.45;39.20
6218;BME280;3142;48.206;11.550;2022-09-06T12:52:46;95850.69;;;30.28;39.65
6218;BME280;3142;48.206;11.550;2022-09-06T12:55:17;95851.53;;;30.12;40.77
6218;BME280;3142;48.206;11.550;2022-09-06T12:57:48;95846.63;;;29.96;41.32
6218;BME280;3142;48.206;11.550;2022-09-06T13:00:15;95833.63;;;29.90;41.69
6218;BME280;3142;48.206;11.550;2022-09-06T13:02:54;95834.75;;;29.89;42.33
6218;BME280;3142;48.206;11.550;2022-09-06T13:05:24;95829.81;;;29.82;42.75
6218;BME280;3142;48.206;11.550;2022-09-06T13:07:53;95830.13;;;29.81;43.24
6218;BME280;3142;48.206;11.550;2022-09-06T13:10:23;95840.31;;;29.75;43.23
6218;BME280;3142;48.206;11.550;2022-09-06T13:12:52;95841.72;;;29.72;43.59
6218;BME280;3142;48.206;11.550;2022-09-06T13:15:22;95836.97;;;29.69;44.05
6218;BME280;3142;48.206;11.550;2022-09-06T13:17:50;95846.31;;;29.81;43.69
6218;BME280;3142;48.206;11.550;2022-09-06T13:20:27;95836.63;;;29.97;43.99
6218;BME280;3142;48.206;11.550;2022-09-06T13:23:05;95837.91;;;30.08;44.25
6218;BME280;3142;48.206;11.550;2022-09-06T13:25:32;95823.91;;;30.15;44.23
6218;BME280;3142;48.206;11.550;2022-09-06T13:27:58;95824.06;;;30.01;44.47
6218;BME280;3142;48.206;11.550;2022-09-06T13:30:32;95823.94;;;30.06;43.41